createdAt,value
2017-12-03T00:01:26.187Z,-0.22
2017-12-03T00:04:00.419Z,-0.28
2017-12-03T00:06:34.845Z,-0.20
2017-12-03T00:09:09.343Z,-0.21
2017-12-03T00:11:44.001Z,-0.27
2017-12-03T00:14:18.492Z,-0.23
2017-12-03T00:16:52.935Z,-0.25
2017-12-03T00:19:27.517Z,-0.35
2017-12-03T00:22:01.910Z,-0.38
2017-12-03T00:24:36.562Z,-0.27
2017-12-03T00:27:10.985Z,-0.59
2017-12-03T00:29:45.470Z,-0.25
2017-12-03T00:32:19.853Z,-0.28
2017-12-03T00:34:54.518Z,-0.38
2017-12-03T00:37:29.091Z,-0.44
2017-12-03T00:40:13.397Z,-0.40
2017-12-03T00:42:47.895Z,-0.43
2017-12-03T00:45:22.553Z,-0.44
2017-12-03T00:47:57.234Z,-0.39
2017-12-03T00:50:31.702Z,-0.29
2017-12-03T00:53:06.205Z,-0.29
2017-12-03T00:55:40.645Z,-0.29
2017-12-03T00:58:15.198Z,-0.26
2017-12-03T01:00:49.562Z,-0.37
2017-12-03T01:03:24.138Z,-0.35
2017-12-03T01:05:58.514Z,-0.33
2017-12-03T01:08:33.337Z,-0.36
2017-12-03T01:11:07.858Z,-0.36
2017-12-03T01:13:42.330Z,-0.36
2017-12-03T01:16:17.008Z,-0.35
2017-12-03T01:18:51.590Z,-0.44
2017-12-03T01:21:26.274Z,-0.39
2017-12-03T01:24:01.078Z,-0.36
2017-12-03T01:26:35.641Z,-0.38
2017-12-03T01:29:10.435Z,-0.40
2017-12-03T01:31:45.212Z,-0.46
2017-12-03T01:34:19.794Z,-0.49
2017-12-03T01:36:54.286Z,-0.49
2017-12-03T01:39:28.770Z,-0.52
2017-12-03T01:42:03.254Z,-0.48
2017-12-03T01:44:37.822Z,-0.53
2017-12-03T01:47:12.615Z,-0.49
2017-12-03T01:49:47.110Z,-0.56
2017-12-03T01:52:21.566Z,-0.63
2017-12-03T01:54:56.248Z,-0.48
2017-12-03T01:57:30.618Z,-0.52
2017-12-03T02:00:06.085Z,-0.48
2017-12-03T02:02:40.686Z,-0.49
2017-12-03T02:05:14.807Z,-0.50
2017-12-03T02:07:49.105Z,-0.46
2017-12-03T02:10:23.790Z,-0.45
2017-12-03T02:12:58.294Z,-0.47
2017-12-03T02:15:32.682Z,-0.46
2017-12-03T02:18:07.085Z,-0.51
2017-12-03T02:20:41.126Z,-0.45
2017-12-03T02:23:15.650Z,-0.43
2017-12-03T02:25:50.073Z,-0.45
2017-12-03T02:28:24.558Z,-0.45
2017-12-03T02:30:59.242Z,-0.40
2017-12-03T02:33:33.747Z,-0.43
2017-12-03T02:36:08.135Z,-0.39
2017-12-03T02:38:42.627Z,-0.39
2017-12-03T02:41:17.078Z,-0.43
2017-12-03T02:43:51.624Z,-0.44
2017-12-03T02:46:26.257Z,-0.42
2017-12-03T02:49:01.028Z,-0.42
2017-12-03T02:51:35.154Z,-0.38
2017-12-03T02:54:09.714Z,-0.36
2017-12-03T02:56:44.078Z,-0.32
2017-12-03T02:59:18.938Z,-0.39
2017-12-03T03:01:53.422Z,-0.40
2017-12-03T03:04:28.175Z,-0.39
2017-12-03T03:07:02.851Z,-0.37
2017-12-03T03:09:37.342Z,-0.39
2017-12-03T03:12:11.792Z,-0.37
2017-12-03T03:14:46.278Z,-0.30
2017-12-03T03:17:20.645Z,-0.35
2017-12-03T03:19:55.209Z,-0.39
2017-12-03T03:22:29.582Z,-0.36
2017-12-03T03:25:13.501Z,-0.32
2017-12-03T03:27:48.090Z,-0.24
2017-12-03T03:30:22.540Z,-0.20
2017-12-03T03:32:56.906Z,-0.19
2017-12-03T03:35:31.264Z,-0.17
2017-12-03T03:38:05.599Z,-0.15
2017-12-03T03:40:40.173Z,-0.15
2017-12-03T03:43:15.010Z,-0.11
2017-12-03T03:45:49.437Z,-0.15
2017-12-03T03:48:23.943Z,-0.17
2017-12-03T03:50:58.335Z,-0.16
2017-12-03T03:53:32.859Z,-0.14
2017-12-03T03:56:06.970Z,-0.13
2017-12-03T03:58:41.414Z,-0.13
2017-12-03T04:01:15.537Z,-0.14
2017-12-03T04:03:49.702Z,-0.12
2017-12-03T04:06:24.086Z,-0.12
2017-12-03T04:08:58.627Z,-0.14
2017-12-03T04:11:32.658Z,-0.12
2017-12-03T04:14:08.244Z,-0.06
2017-12-03T04:16:42.586Z,-0.09
2017-12-03T04:19:17.193Z,-0.20
2017-12-03T04:21:51.513Z,-0.10
2017-12-03T04:24:26.013Z,-0.13
2017-12-03T04:27:00.287Z,-0.14
2017-12-03T04:29:34.818Z,-0.07
2017-12-03T04:32:09.065Z,-0.04
2017-12-03T04:34:43.374Z,-0.02
2017-12-03T04:37:17.220Z,-0.04
2017-12-03T04:39:51.261Z,-0.08
2017-12-03T04:42:25.387Z,-0.04
2017-12-03T04:44:59.378Z,-0.10
2017-12-03T04:47:33.467Z,-0.15
2017-12-03T04:50:11.516Z,-0.15
2017-12-03T04:52:45.683Z,-0.13
2017-12-03T04:55:20.062Z,-0.15
2017-12-03T04:57:54.580Z,-0.06
2017-12-03T05:00:28.994Z,-0.05
2017-12-03T05:03:03.503Z,-0.13
2017-12-03T05:05:37.493Z,-0.11
2017-12-03T05:08:11.567Z,-0.06
2017-12-03T05:10:45.477Z,-0.07
2017-12-03T05:13:19.725Z,-0.04
2017-12-03T05:15:53.766Z,-0.04
2017-12-03T05:18:27.870Z,-0.02
2017-12-03T05:21:01.894Z,-0.01
2017-12-03T05:23:36.147Z,0.00
2017-12-03T05:26:10.187Z,0.02
2017-12-03T05:28:44.686Z,0.01
2017-12-03T05:31:18.723Z,0.06
2017-12-03T05:33:52.838Z,0.00
2017-12-03T05:36:26.885Z,0.10
2017-12-03T05:39:01.446Z,0.08
2017-12-03T05:41:35.930Z,-0.02
2017-12-03T05:44:10.105Z,0.07
2017-12-03T05:46:44.132Z,0.04
2017-12-03T05:49:18.637Z,-0.03
2017-12-03T05:51:52.668Z,0.02
2017-12-03T05:54:26.852Z,0.06
2017-12-03T05:57:01.467Z,0.10
2017-12-03T05:59:35.654Z,0.11
2017-12-03T06:02:09.698Z,0.05
2017-12-03T06:04:43.879Z,0.07
2017-12-03T06:07:17.930Z,0.11
2017-12-03T06:09:52.075Z,0.10
2017-12-03T06:12:26.166Z,0.18
2017-12-03T06:15:00.734Z,0.22
2017-12-03T06:17:35.212Z,0.17
2017-12-03T06:20:16.385Z,0.21
2017-12-03T06:22:50.458Z,0.25
2017-12-03T06:25:24.558Z,0.22
2017-12-03T06:27:58.953Z,0.29
2017-12-03T06:30:33.007Z,0.34
2017-12-03T06:33:07.117Z,0.27
2017-12-03T06:35:41.514Z,0.29
2017-12-03T06:38:16.044Z,0.35
2017-12-03T06:40:50.070Z,0.32
2017-12-03T06:43:24.227Z,0.39
2017-12-03T06:45:58.338Z,0.37
2017-12-03T06:48:32.898Z,0.39
2017-12-03T06:51:07.058Z,0.34
2017-12-03T06:53:41.639Z,0.35
2017-12-03T06:56:16.093Z,0.36
2017-12-03T06:58:50.374Z,0.39
2017-12-03T07:01:24.407Z,0.39
2017-12-03T07:03:58.639Z,0.44
2017-12-03T07:06:32.749Z,0.41
2017-12-03T07:09:07.274Z,0.45
2017-12-03T07:11:41.322Z,0.46
2017-12-03T07:14:15.450Z,0.48
2017-12-03T07:16:49.849Z,0.53
2017-12-03T07:19:24.334Z,0.60
2017-12-03T07:21:58.227Z,0.60
2017-12-03T07:24:32.406Z,0.58
2017-12-03T07:27:06.362Z,0.63
2017-12-03T07:29:40.858Z,0.58
2017-12-03T07:32:15.001Z,0.71
2017-12-03T07:34:49.397Z,0.75
2017-12-03T07:37:23.842Z,0.72
2017-12-03T07:39:59.079Z,0.74
2017-12-03T07:42:33.701Z,0.85
2017-12-03T07:45:14.574Z,0.89
2017-12-03T07:47:48.701Z,0.78
2017-12-03T07:50:22.738Z,0.82
2017-12-03T07:52:57.268Z,0.86
2017-12-03T07:55:31.298Z,0.90
2017-12-03T07:58:05.613Z,0.89
2017-12-03T08:00:40.142Z,0.90
2017-12-03T08:03:14.533Z,0.92
2017-12-03T08:05:48.906Z,0.88
2017-12-03T08:08:23.122Z,0.88
2017-12-03T08:10:58.814Z,0.79
2017-12-03T08:13:32.866Z,0.86
2017-12-03T08:16:06.973Z,0.89
2017-12-03T08:18:41.153Z,0.90
2017-12-03T08:21:15.347Z,0.87
2017-12-03T08:23:49.621Z,0.84
2017-12-03T08:26:23.563Z,0.84
2017-12-03T08:28:57.475Z,0.82
2017-12-03T08:31:31.978Z,0.91
2017-12-03T08:34:06.598Z,0.85
2017-12-03T08:36:40.719Z,0.85
2017-12-03T08:39:15.158Z,0.78
2017-12-03T08:41:49.734Z,0.76
2017-12-03T08:44:23.894Z,0.74
2017-12-03T08:46:57.928Z,0.75
2017-12-03T08:49:32.301Z,0.76
2017-12-03T08:52:06.534Z,0.76
2017-12-03T08:54:40.800Z,0.79
2017-12-03T08:57:15.192Z,0.77
2017-12-03T08:59:49.367Z,0.79
2017-12-03T09:02:23.454Z,0.80
2017-12-03T09:04:57.633Z,0.82
2017-12-03T09:07:31.682Z,0.80
2017-12-03T09:10:10.890Z,0.65
2017-12-03T09:12:45.126Z,0.77
2017-12-03T09:15:19.191Z,0.81
2017-12-03T09:17:53.402Z,0.92
2017-12-03T09:20:27.831Z,0.88
2017-12-03T09:23:01.983Z,0.77
2017-12-03T09:25:36.092Z,0.97
2017-12-03T09:28:10.125Z,1.05
2017-12-03T09:30:44.390Z,1.12
2017-12-03T09:33:18.642Z,1.26
2017-12-03T09:35:52.698Z,1.10
2017-12-03T09:38:26.863Z,1.27
2017-12-03T09:41:00.730Z,1.20
2017-12-03T09:43:34.775Z,1.35
2017-12-03T09:46:08.818Z,1.50
2017-12-03T09:48:42.970Z,1.62
2017-12-03T09:51:17.120Z,1.72
2017-12-03T09:53:51.175Z,1.71
2017-12-03T09:56:25.086Z,1.70
2017-12-03T09:58:59.254Z,1.78
2017-12-03T10:01:33.845Z,1.89
2017-12-03T10:04:08.086Z,2.49
2017-12-03T10:06:42.238Z,2.65
2017-12-03T10:09:16.286Z,2.76
2017-12-03T10:11:50.639Z,3.30
2017-12-03T10:14:24.916Z,2.53
2017-12-03T10:16:59.321Z,2.13
2017-12-03T10:19:33.504Z,2.01
2017-12-03T10:22:07.512Z,1.95
2017-12-03T10:24:41.857Z,1.93
2017-12-03T10:27:16.162Z,1.87
2017-12-03T10:29:50.346Z,1.82
2017-12-03T10:32:24.483Z,2.02
2017-12-03T10:34:58.646Z,2.11
2017-12-03T10:37:32.836Z,2.44
2017-12-03T10:40:15.268Z,2.22
2017-12-03T10:42:49.742Z,2.03
2017-12-03T10:45:24.098Z,1.83
2017-12-03T10:47:58.633Z,1.78
2017-12-03T10:50:33.232Z,1.87
2017-12-03T10:53:07.797Z,1.97
2017-12-03T10:55:42.220Z,1.95
2017-12-03T10:58:16.730Z,2.05
2017-12-03T11:00:51.084Z,2.06
2017-12-03T11:03:25.535Z,2.14
2017-12-03T11:06:00.279Z,2.10
2017-12-03T11:08:34.456Z,2.05
2017-12-03T11:11:08.938Z,2.02
2017-12-03T11:13:43.442Z,1.98
2017-12-03T11:16:17.809Z,2.02
2017-12-03T11:18:52.281Z,2.03
2017-12-03T11:21:26.765Z,2.10
2017-12-03T11:24:01.221Z,2.24
2017-12-03T11:26:35.611Z,2.24
2017-12-03T11:29:09.958Z,2.19
2017-12-03T11:31:44.489Z,1.92
2017-12-03T11:34:18.892Z,2.18
2017-12-03T11:36:53.151Z,2.04
2017-12-03T11:39:27.606Z,2.02
2017-12-03T11:42:01.995Z,1.92
2017-12-03T11:44:36.482Z,2.02
2017-12-03T11:47:10.857Z,2.17
2017-12-03T11:49:45.362Z,2.07
2017-12-03T11:52:19.794Z,2.11
2017-12-03T11:54:54.278Z,2.37
2017-12-03T11:57:28.795Z,2.48
2017-12-03T12:02:43.747Z,2.31
2017-12-03T12:05:18.190Z,2.09
2017-12-03T12:07:52.668Z,2.07
2017-12-03T12:10:27.032Z,2.10
2017-12-03T12:13:01.534Z,1.84
2017-12-03T12:15:35.831Z,1.87
2017-12-03T12:18:10.324Z,1.86
2017-12-03T12:20:44.706Z,1.87
2017-12-03T12:23:19.185Z,1.86
2017-12-03T12:25:53.358Z,1.90
2017-12-03T12:28:27.968Z,1.90
2017-12-03T12:31:02.358Z,1.82
2017-12-03T12:33:36.837Z,1.89
2017-12-03T12:36:11.225Z,1.89
2017-12-03T12:38:45.773Z,1.87
2017-12-03T12:41:20.141Z,1.89
2017-12-03T12:43:54.530Z,1.89
2017-12-03T12:46:28.907Z,1.91
2017-12-03T12:49:03.431Z,1.81
2017-12-03T12:51:37.455Z,1.81
2017-12-03T12:54:11.914Z,1.89
2017-12-03T12:56:46.013Z,1.90
2017-12-03T12:59:20.489Z,1.95
2017-12-03T13:01:55.079Z,2.09
2017-12-03T13:04:29.650Z,1.88
2017-12-03T13:07:04.097Z,1.73
2017-12-03T13:09:38.604Z,1.77
2017-12-03T13:12:13.084Z,1.66
2017-12-03T13:14:47.574Z,1.64
2017-12-03T13:17:22.018Z,1.73
2017-12-03T13:19:56.518Z,1.81
2017-12-03T13:22:30.878Z,1.71
2017-12-03T13:25:07.853Z,1.71
2017-12-03T13:27:42.280Z,1.64
2017-12-03T13:30:16.740Z,1.58
2017-12-03T13:32:51.223Z,1.63
2017-12-03T13:35:25.996Z,1.59
2017-12-03T13:38:00.226Z,1.59
2017-12-03T13:40:34.797Z,1.69
2017-12-03T13:43:09.314Z,1.68
2017-12-03T13:45:43.702Z,1.66
2017-12-03T13:48:18.289Z,1.63
2017-12-03T13:50:52.674Z,1.57
2017-12-03T13:53:27.018Z,1.64
2017-12-03T13:56:01.374Z,1.68
2017-12-03T13:58:35.458Z,1.69
2017-12-03T14:01:09.905Z,1.67
2017-12-03T14:03:44.247Z,1.69
2017-12-03T14:06:18.714Z,1.71
2017-12-03T14:08:53.106Z,1.62
2017-12-03T14:11:27.685Z,1.65
2017-12-03T14:14:02.871Z,1.57
2017-12-03T14:16:37.410Z,1.63
2017-12-03T14:19:11.755Z,1.51
2017-12-03T14:21:46.038Z,1.48
2017-12-03T14:24:20.438Z,1.42
2017-12-03T14:26:54.832Z,1.40
2017-12-03T14:29:29.150Z,1.37
2017-12-03T14:32:03.280Z,1.32
2017-12-03T14:34:37.838Z,1.31
2017-12-03T14:37:12.291Z,1.24
2017-12-03T14:39:46.778Z,1.17
2017-12-03T14:42:20.954Z,1.17
2017-12-03T14:44:55.286Z,1.12
2017-12-03T14:47:29.474Z,1.11
2017-12-03T14:50:07.586Z,1.13
2017-12-03T14:52:42.072Z,1.11
2017-12-03T14:55:16.505Z,1.12
2017-12-03T14:57:50.898Z,1.12
2017-12-03T15:00:25.658Z,1.16
2017-12-03T15:03:00.122Z,1.12
2017-12-03T15:05:34.262Z,1.10
2017-12-03T15:08:08.790Z,1.11
2017-12-03T15:10:43.174Z,1.14
2017-12-03T15:13:19.007Z,1.13
2017-12-03T15:15:53.035Z,1.12
2017-12-03T15:18:27.202Z,1.13
2017-12-03T15:21:01.382Z,1.13
2017-12-03T15:23:35.562Z,1.14
2017-12-03T15:26:09.706Z,1.22
2017-12-03T15:28:43.682Z,1.18
2017-12-03T15:31:17.706Z,1.16
2017-12-03T15:33:51.981Z,1.21
2017-12-03T15:36:25.995Z,1.26
2017-12-03T15:39:00.048Z,1.17
2017-12-03T15:41:34.173Z,0.99
2017-12-03T15:44:08.534Z,0.90
2017-12-03T15:46:42.699Z,0.81
2017-12-03T15:49:16.548Z,0.82
2017-12-03T15:51:50.520Z,0.87
2017-12-03T15:54:24.716Z,0.83
2017-12-03T15:56:58.894Z,0.84
2017-12-03T15:59:33.299Z,0.90
2017-12-03T16:02:07.229Z,0.82
2017-12-03T16:04:41.334Z,0.85
2017-12-03T16:07:15.350Z,0.84
2017-12-03T16:09:49.922Z,0.89
2017-12-03T16:12:23.982Z,0.84
2017-12-03T16:14:58.114Z,0.96
2017-12-03T16:17:32.168Z,1.00
2017-12-03T16:20:07.380Z,0.64
2017-12-03T16:22:41.738Z,0.88
2017-12-03T16:25:16.188Z,0.77
2017-12-03T16:27:50.341Z,0.80
2017-12-03T16:30:24.306Z,0.85
2017-12-03T16:32:59.075Z,0.87
2017-12-03T16:35:33.359Z,0.91
2017-12-03T16:38:07.527Z,0.87
2017-12-03T16:40:41.916Z,0.92
2017-12-03T16:43:16.086Z,0.91
2017-12-03T16:45:50.123Z,0.87
2017-12-03T16:48:24.313Z,0.86
2017-12-03T16:50:58.734Z,0.86
2017-12-03T16:53:33.333Z,0.90
2017-12-03T16:56:07.714Z,0.97
2017-12-03T16:58:42.154Z,0.90
2017-12-03T17:01:16.352Z,0.89
2017-12-03T17:03:50.846Z,0.92
2017-12-03T17:06:25.277Z,0.96
2017-12-03T17:08:59.731Z,0.89
2017-12-03T17:11:34.168Z,0.85
2017-12-03T17:14:08.874Z,0.87
2017-12-03T17:16:43.347Z,0.77
2017-12-03T17:19:17.855Z,0.85
2017-12-03T17:21:51.971Z,0.81
2017-12-03T17:24:26.546Z,0.86
2017-12-03T17:27:00.427Z,0.83
2017-12-03T17:29:34.643Z,0.88
2017-12-03T17:32:08.710Z,0.82
2017-12-03T17:34:43.166Z,0.81
2017-12-03T17:37:17.332Z,0.84
2017-12-03T17:39:51.846Z,0.86
2017-12-03T17:42:26.354Z,0.81
2017-12-03T17:45:00.930Z,0.87
2017-12-03T17:47:35.353Z,0.86
2017-12-03T17:50:11.670Z,0.50
2017-12-03T17:52:46.098Z,0.82
2017-12-03T17:55:20.578Z,0.80
2017-12-03T17:57:55.058Z,0.82
2017-12-03T18:00:29.222Z,0.81
2017-12-03T18:03:03.811Z,0.86
2017-12-03T18:05:38.255Z,0.85
2017-12-03T18:08:12.844Z,0.85
2017-12-03T18:10:47.274Z,0.84
2017-12-03T18:13:21.783Z,0.88
2017-12-03T18:15:56.167Z,0.86
2017-12-03T18:18:30.654Z,0.87
2017-12-03T18:21:05.024Z,0.85
2017-12-03T18:23:39.508Z,0.86
2017-12-03T18:26:13.559Z,0.87
2017-12-03T18:28:48.145Z,0.84
2017-12-03T18:31:22.602Z,0.76
2017-12-03T18:33:57.115Z,0.79
2017-12-03T18:36:31.570Z,0.76
2017-12-03T18:39:06.194Z,0.79
2017-12-03T18:41:40.398Z,0.80
2017-12-03T18:44:14.701Z,0.75
2017-12-03T18:46:48.665Z,0.78
2017-12-03T18:49:22.974Z,0.78
2017-12-03T18:51:57.150Z,0.78
2017-12-03T18:54:31.699Z,0.78
2017-12-03T18:57:06.021Z,0.80
2017-12-03T18:59:40.058Z,0.75
2017-12-03T19:02:14.329Z,0.81
2017-12-03T19:04:48.978Z,0.83
2017-12-03T19:07:23.402Z,0.71
2017-12-03T19:09:57.864Z,0.82
2017-12-03T19:12:32.242Z,0.85
2017-12-03T19:15:07.934Z,0.81
2017-12-03T19:17:42.421Z,0.83
2017-12-03T19:20:16.468Z,0.65
2017-12-03T19:22:50.621Z,0.78
2017-12-03T19:25:25.010Z,0.80
2017-12-03T19:28:00.231Z,0.79
2017-12-03T19:30:34.718Z,0.81
2017-12-03T19:33:09.277Z,0.75
2017-12-03T19:35:43.722Z,0.74
2017-12-03T19:38:18.221Z,0.74
2017-12-03T19:40:52.578Z,0.74
2017-12-03T19:43:26.818Z,0.75
2017-12-03T19:46:01.171Z,0.73
2017-12-03T19:48:35.669Z,0.73
2017-12-03T19:51:09.724Z,0.78
2017-12-03T19:53:44.195Z,0.80
2017-12-03T19:56:18.644Z,0.79
2017-12-03T19:58:53.218Z,0.80
2017-12-03T20:01:27.826Z,0.72
2017-12-03T20:04:02.346Z,0.81
2017-12-03T20:06:36.362Z,0.75
2017-12-03T20:09:10.889Z,0.69
2017-12-03T20:11:45.302Z,0.69
2017-12-03T20:14:19.826Z,0.69
2017-12-03T20:16:54.190Z,0.71
2017-12-03T20:19:28.770Z,0.64
2017-12-03T20:22:03.134Z,0.60
2017-12-03T20:24:37.618Z,0.62
2017-12-03T20:27:11.979Z,0.60
2017-12-03T20:29:46.360Z,0.58
2017-12-03T20:32:20.533Z,0.56
2017-12-03T20:34:54.666Z,0.52
2017-12-03T20:37:28.935Z,0.50
2017-12-03T20:40:02.967Z,0.51
2017-12-03T20:42:37.154Z,0.48
2017-12-03T20:45:13.235Z,0.52
2017-12-03T20:47:47.272Z,0.52
2017-12-03T20:50:21.473Z,0.58
2017-12-03T20:52:55.742Z,0.67
2017-12-03T20:55:30.138Z,0.61
2017-12-03T20:58:04.585Z,0.67
2017-12-03T21:00:38.699Z,0.68
2017-12-03T21:03:13.430Z,0.66
2017-12-03T21:05:47.887Z,0.66
2017-12-03T21:08:22.046Z,0.68
2017-12-03T21:10:56.410Z,0.72
2017-12-03T21:13:30.895Z,0.73
2017-12-03T21:16:05.338Z,0.66
2017-12-03T21:18:39.590Z,0.78
2017-12-03T21:21:13.609Z,0.85
2017-12-03T21:23:47.998Z,0.89
2017-12-03T21:26:22.365Z,0.91
2017-12-03T21:28:56.943Z,0.95
2017-12-03T21:31:30.978Z,0.87
2017-12-03T21:34:05.785Z,1.01
2017-12-03T21:36:41.054Z,0.99
2017-12-03T21:39:15.262Z,0.95
2017-12-03T21:41:49.570Z,1.01
2017-12-03T21:44:24.056Z,0.99
2017-12-03T21:46:58.454Z,1.06
2017-12-03T21:49:32.941Z,1.08
2017-12-03T21:52:07.609Z,1.08
2017-12-03T21:54:42.146Z,1.10
2017-12-03T21:57:16.331Z,1.10
2017-12-03T21:59:50.914Z,1.15
2017-12-03T22:02:25.358Z,1.21
2017-12-03T22:04:59.663Z,1.29
2017-12-03T22:07:33.996Z,1.30
2017-12-03T22:10:13.743Z,1.27
2017-12-03T22:12:48.107Z,1.28
2017-12-03T22:15:22.477Z,1.37
2017-12-03T22:17:56.946Z,1.30
2017-12-03T22:20:31.372Z,1.34
2017-12-03T22:23:05.942Z,1.35
2017-12-03T22:25:40.306Z,1.38
2017-12-03T22:28:14.813Z,1.43
2017-12-03T22:30:49.170Z,1.43
2017-12-03T22:33:23.779Z,1.47
2017-12-03T22:35:58.345Z,1.41
2017-12-03T22:38:32.928Z,1.40
2017-12-03T22:41:07.377Z,1.46
2017-12-03T22:43:41.891Z,1.48
2017-12-03T22:46:16.950Z,1.42
2017-12-03T22:48:51.450Z,1.41
2017-12-03T22:51:25.894Z,1.48
2017-12-03T22:54:00.409Z,1.48
2017-12-03T22:56:34.774Z,1.48
2017-12-03T22:59:09.518Z,1.46
2017-12-03T23:01:44.449Z,1.42
2017-12-03T23:04:18.322Z,1.45
2017-12-03T23:06:52.855Z,1.44
2017-12-03T23:09:27.310Z,1.41
2017-12-03T23:12:01.702Z,1.45
2017-12-03T23:14:36.260Z,1.33
2017-12-03T23:17:10.418Z,1.41
2017-12-03T23:19:44.766Z,1.37
2017-12-03T23:22:19.202Z,1.37
2017-12-03T23:24:53.694Z,1.41
2017-12-03T23:27:27.859Z,1.42
2017-12-03T23:30:02.794Z,1.42
2017-12-03T23:32:37.291Z,1.37
2017-12-03T23:35:11.750Z,1.18
2017-12-03T23:37:45.922Z,1.41
2017-12-03T23:40:20.281Z,1.39
2017-12-03T23:42:54.660Z,1.39
2017-12-03T23:45:28.846Z,1.38
2017-12-03T23:48:03.342Z,1.38
2017-12-03T23:50:37.389Z,1.31
2017-12-03T23:53:11.886Z,1.43
2017-12-03T23:55:46.383Z,1.39
2017-12-03T23:58:20.573Z,1.42
